»·PEaware :: N5756Q KOXR-KSBP

N5756Q :: KOXR-KSBP

FLIGHT INFORMATION

Flight Status: Arrived
Operator: Privately registered:
United States
More flights under this callsign
Pilot: Anonymous 11620 (11620)
Aircraft: MOONEY M-20 201 202 205 220 ATS MSE
(M20P)
More flights by this aircraft type
Origin: KOXR Oxnard
United States
Destination: KSBP San Luis Co Regl
United States
More flights between these airports :: More routes between these airports
Route: RZS MQO
File this flight plan on PilotEdge
Remarks:
Altitude:
(Current/Filed)
8,000ft
Speed:
(Current/Filed)
160kts
Departed: 31-Jan-21 01:30 PM
Arrived: 31-Jan-21 02:09 PM
Distance/Time
Traveled:
94nm/0:38
Distance/Time
To Go:
Arrived

Flight Plot

Page will automatically refresh every two minutes.

Flight plan parsing failed; only flown route is shown


Map Options




Map Legend


Flown Route
Filed Route
Departure Airport
Arrival Airport
Navaid (VOR, NDB)
Fix

Horizontal Profiles

Position Reports

Time Latitude Longitude Heading Altitude Ground
Speed
31-Jan-21 13:16 34.198999 -119.197763 269 46ft 0kts
31-Jan-21 13:17 34.198999 -119.197763 269 46ft 0kts
31-Jan-21 13:18 34.198999 -119.197763 269 46ft 0kts
31-Jan-21 13:19 34.198999 -119.197763 269 46ft 0kts
31-Jan-21 13:20 34.198999 -119.197763 269 46ft 0kts
31-Jan-21 13:21 34.198999 -119.197763 269 46ft 0kts
31-Jan-21 13:22 34.198999 -119.197763 269 46ft 0kts
31-Jan-21 13:23 34.198999 -119.197763 269 46ft 0kts
31-Jan-21 13:24 34.198999 -119.197763 269 46ft 0kts
31-Jan-21 13:25 34.199027 -119.197805 343 46ft 3kts
31-Jan-21 13:26 34.199762 -119.197217 280 47ft 0kts
31-Jan-21 13:27 34.199969 -119.197528 353 47ft 0kts
31-Jan-21 13:28 34.199969 -119.197528 353 47ft 0kts
31-Jan-21 13:29 34.200769 -119.202888 272 49ft 75kts
31-Jan-21 13:30 34.199662 -119.238013 270 687ft 119kts
31-Jan-21 13:31 34.198661 -119.278284 270 1412ft 118kts
31-Jan-21 13:32 34.198331 -119.316904 270 2199ft 112kts
31-Jan-21 13:33 34.197005 -119.353626 267 2988ft 106kts
31-Jan-21 13:34 34.203045 -119.385216 313 3784ft 102kts
31-Jan-21 13:35 34.223720 -119.409686 311 4579ft 105kts
31-Jan-21 13:36 34.244172 -119.434949 310 5368ft 105kts
31-Jan-21 13:37 34.264154 -119.459986 309 6155ft 102kts
31-Jan-21 13:38 34.283547 -119.484418 309 6865ft 105kts
31-Jan-21 13:39 34.305265 -119.511853 309 7378ft 119kts
31-Jan-21 13:40 34.328948 -119.541750 310 7877ft 126kts
31-Jan-21 13:41 34.355185 -119.574941 311 8009ft 149kts
31-Jan-21 13:42 34.385376 -119.613126 311 8007ft 162kts
31-Jan-21 13:43 34.416853 -119.652997 311 8008ft 165kts
31-Jan-21 13:44 34.449981 -119.694998 311 8011ft 180kts
31-Jan-21 13:45 34.485291 -119.739850 311 8009ft 187kts
31-Jan-21 13:46 34.521285 -119.786093 310 8009ft 189kts
31-Jan-21 13:47 34.557127 -119.833164 310 8008ft 190kts
31-Jan-21 13:48 34.593187 -119.880596 310 8008ft 192kts
31-Jan-21 13:49 34.629669 -119.928650 310 8008ft 194kts
31-Jan-21 13:50 34.666537 -119.977282 309 8009ft 196kts
31-Jan-21 13:51 34.703473 -120.026074 309 8009ft 197kts
31-Jan-21 13:52 34.740596 -120.075176 310 8009ft 197kts
31-Jan-21 13:53 34.777770 -120.124419 310 8011ft 197kts
31-Jan-21 13:54 34.814765 -120.173496 310 8015ft 196kts
31-Jan-21 13:55 34.851367 -120.222122 310 8021ft 194kts
31-Jan-21 13:56 34.887746 -120.270628 310 8026ft 193kts
31-Jan-21 13:57 34.923983 -120.318948 310 7901ft 198kts
31-Jan-21 13:58 34.962052 -120.369745 311 7358ft 201kts
31-Jan-21 13:59 34.999771 -120.420136 311 6672ft 200kts
31-Jan-21 14:00 35.035736 -120.463545 321 5136ft 169kts
31-Jan-21 14:01 35.069542 -120.495427 324 3839ft 145kts
31-Jan-21 14:02 35.099784 -120.522306 325 2823ft 133kts
31-Jan-21 14:03 35.132510 -120.541196 340 2025ft 117kts
31-Jan-21 14:04 35.161608 -120.553869 343 1627ft 113kts
31-Jan-21 14:05 35.193531 -120.572542 326 1497ft 151kts
31-Jan-21 14:06 35.218489 -120.608426 305 971ft 106kts
31-Jan-21 14:07 35.232584 -120.632698 305 239ft 81kts
31-Jan-21 14:08 35.237783 -120.640041 89 215ft 0kts
31-Jan-21 14:09 35.237303 -120.639043 125 215ft 17kts

Navigation Log

Ident Type
Flight plan parsing failed, navigation log unavailable